sensor_id;sensor_type;location;lat;lon;timestamp;P1;durP1;ratioP1;P2;durP2;ratioP2
75593;SDS011;64176;49.156;7.810;2023-09-19T00:00:48;3.10;;;1.30;;
75593;SDS011;64176;49.156;7.810;2023-09-19T00:03:35;2.80;;;1.42;;
75593;SDS011;64176;49.156;7.810;2023-09-19T00:06:24;1.77;;;1.10;;
75593;SDS011;64176;49.156;7.810;2023-09-19T00:12:00;4.75;;;2.45;;
75593;SDS011;64176;49.156;7.810;2023-09-19T00:14:47;2.40;;;1.17;;
75593;SDS011;64176;49.156;7.810;2023-09-19T00:20:15;2.53;;;0.80;;
75593;SDS011;64176;49.156;7.810;2023-09-19T00:25:49;2.22;;;1.13;;
75593;SDS011;64176;49.156;7.810;2023-09-19T00:31:19;2.45;;;1.52;;
75593;SDS011;64176;49.156;7.810;2023-09-19T00:34:03;2.35;;;0.90;;
75593;SDS011;64176;49.156;7.810;2023-09-19T00:36:50;2.63;;;0.80;;
75593;SDS011;64176;49.156;7.810;2023-09-19T00:39:37;3.25;;;1.20;;
75593;SDS011;64176;49.156;7.810;2023-09-19T00:42:24;2.88;;;1.10;;
75593;SDS011;64176;49.156;7.810;2023-09-19T00:45:10;2.80;;;1.58;;
75593;SDS011;64176;49.156;7.810;2023-09-19T00:47:56;3.35;;;1.10;;
75593;SDS011;64176;49.156;7.810;2023-09-19T00:50:43;2.45;;;0.95;;
75593;SDS011;64176;49.156;7.810;2023-09-19T00:53:32;1.65;;;1.10;;
75593;SDS011;64176;49.156;7.810;2023-09-19T00:56:21;2.85;;;1.00;;
75593;SDS011;64176;49.156;7.810;2023-09-19T00:59:07;2.30;;;1.27;;
75593;SDS011;64176;49.156;7.810;2023-09-19T01:01:51;4.65;;;1.30;;
75593;SDS011;64176;49.156;7.810;2023-09-19T01:07:21;1.92;;;1.13;;
75593;SDS011;64176;49.156;7.810;2023-09-19T01:10:08;3.97;;;1.00;;
75593;SDS011;64176;49.156;7.810;2023-09-19T01:18:55;4.43;;;1.20;;
75593;SDS011;64176;49.156;7.810;2023-09-19T01:22:29;3.95;;;1.30;;
75593;SDS011;64176;49.156;7.810;2023-09-19T01:31:26;5.05;;;1.23;;
75593;SDS011;64176;49.156;7.810;2023-09-19T01:34:17;4.72;;;1.00;;
75593;SDS011;64176;49.156;7.810;2023-09-19T01:37:02;2.42;;;1.23;;
75593;SDS011;64176;49.156;7.810;2023-09-19T01:39:50;3.88;;;1.50;;
75593;SDS011;64176;49.156;7.810;2023-09-19T01:46:03;3.58;;;1.52;;
75593;SDS011;64176;49.156;7.810;2023-09-19T01:52:23;2.47;;;1.27;;
75593;SDS011;64176;49.156;7.810;2023-09-19T01:55:13;2.72;;;2.03;;
75593;SDS011;64176;49.156;7.810;2023-09-19T01:58:05;2.53;;;1.13;;
75593;SDS011;64176;49.156;7.810;2023-09-19T02:00:53;1.65;;;1.23;;
75593;SDS011;64176;49.156;7.810;2023-09-19T02:03:38;2.20;;;1.00;;
75593;SDS011;64176;49.156;7.810;2023-09-19T02:06:24;3.13;;;1.30;;
75593;SDS011;64176;49.156;7.810;2023-09-19T02:09:10;2.17;;;1.23;;
75593;SDS011;64176;49.156;7.810;2023-09-19T02:11:54;2.20;;;1.05;;
75593;SDS011;64176;49.156;7.810;2023-09-19T02:14:40;3.65;;;1.15;;
75593;SDS011;64176;49.156;7.810;2023-09-19T02:17:24;2.08;;;1.20;;
75593;SDS011;64176;49.156;7.810;2023-09-19T02:20:12;3.20;;;1.48;;
75593;SDS011;64176;49.156;7.810;2023-09-19T02:22:58;2.67;;;2.17;;
75593;SDS011;64176;49.156;7.810;2023-09-19T02:25:51;3.20;;;2.15;;
75593;SDS011;64176;49.156;7.810;2023-09-19T02:28:35;3.50;;;1.30;;
75593;SDS011;64176;49.156;7.810;2023-09-19T02:31:19;2.63;;;1.50;;
75593;SDS011;64176;49.156;7.810;2023-09-19T02:34:03;2.20;;;1.65;;
75593;SDS011;64176;49.156;7.810;2023-09-19T02:36:54;3.15;;;1.45;;
75593;SDS011;64176;49.156;7.810;2023-09-19T02:39:41;2.05;;;1.20;;
75593;SDS011;64176;49.156;7.810;2023-09-19T02:42:28;2.78;;;1.63;;
75593;SDS011;64176;49.156;7.810;2023-09-19T02:45:14;5.30;;;1.50;;
75593;SDS011;64176;49.156;7.810;2023-09-19T02:48:06;5.00;;;1.80;;
75593;SDS011;64176;49.156;7.810;2023-09-19T02:50:52;5.10;;;2.20;;
75593;SDS011;64176;49.156;7.810;2023-09-19T02:53:36;3.17;;;1.85;;
75593;SDS011;64176;49.156;7.810;2023-09-19T02:56:23;3.03;;;1.80;;
75593;SDS011;64176;49.156;7.810;2023-09-19T02:59:08;3.13;;;1.42;;
75593;SDS011;64176;49.156;7.810;2023-09-19T03:01:54;4.13;;;1.50;;
75593;SDS011;64176;49.156;7.810;2023-09-19T03:04:38;2.85;;;1.55;;
75593;SDS011;64176;49.156;7.810;2023-09-19T03:07:25;2.53;;;1.92;;
75593;SDS011;64176;49.156;7.810;2023-09-19T03:10:13;4.00;;;2.20;;
75593;SDS011;64176;49.156;7.810;2023-09-19T03:13:02;2.60;;;1.67;;
75593;SDS011;64176;49.156;7.810;2023-09-19T03:15:49;2.65;;;2.00;;
75593;SDS011;64176;49.156;7.810;2023-09-19T03:18:37;3.42;;;1.50;;
75593;SDS011;64176;49.156;7.810;2023-09-19T03:21:24;3.47;;;1.73;;
75593;SDS011;64176;49.156;7.810;2023-09-19T03:24:09;3.72;;;2.38;;
75593;SDS011;64176;49.156;7.810;2023-09-19T03:26:56;4.38;;;2.20;;
75593;SDS011;64176;49.156;7.810;2023-09-19T03:29:43;6.22;;;2.10;;
75593;SDS011;64176;49.156;7.810;2023-09-19T03:32:28;3.22;;;1.90;;
75593;SDS011;64176;49.156;7.810;2023-09-19T03:37:59;2.95;;;2.00;;
75593;SDS011;64176;49.156;7.810;2023-09-19T03:40:43;4.32;;;2.20;;
75593;SDS011;64176;49.156;7.810;2023-09-19T03:43:28;5.22;;;2.00;;
75593;SDS011;64176;49.156;7.810;2023-09-19T03:46:14;5.30;;;2.20;;
75593;SDS011;64176;49.156;7.810;2023-09-19T03:49:02;4.22;;;1.95;;
75593;SDS011;64176;49.156;7.810;2023-09-19T03:51:46;4.93;;;2.20;;
75593;SDS011;64176;49.156;7.810;2023-09-19T03:54:31;2.67;;;1.92;;
75593;SDS011;64176;49.156;7.810;2023-09-19T03:57:15;4.65;;;2.47;;
75593;SDS011;64176;49.156;7.810;2023-09-19T04:00:07;4.85;;;2.80;;
75593;SDS011;64176;49.156;7.810;2023-09-19T04:03:00;7.75;;;2.40;;
75593;SDS011;64176;49.156;7.810;2023-09-19T04:05:52;2.97;;;2.03;;
75593;SDS011;64176;49.156;7.810;2023-09-19T04:08:36;3.90;;;2.22;;
75593;SDS011;64176;49.156;7.810;2023-09-19T04:11:27;7.60;;;2.53;;
75593;SDS011;64176;49.156;7.810;2023-09-19T04:14:11;5.18;;;2.58;;
75593;SDS011;64176;49.156;7.810;2023-09-19T04:19:42;5.03;;;2.40;;
75593;SDS011;64176;49.156;7.810;2023-09-19T04:25:14;6.25;;;2.42;;
75593;SDS011;64176;49.156;7.810;2023-09-19T04:28:04;2.97;;;2.10;;
75593;SDS011;64176;49.156;7.810;2023-09-19T04:30:53;5.75;;;2.67;;
75593;SDS011;64176;49.156;7.810;2023-09-19T04:33:37;5.30;;;2.65;;
75593;SDS011;64176;49.156;7.810;2023-09-19T04:36:27;4.20;;;2.20;;
75593;SDS011;64176;49.156;7.810;2023-09-19T04:41:59;5.50;;;3.05;;
75593;SDS011;64176;49.156;7.810;2023-09-19T04:44:46;3.90;;;2.60;;
75593;SDS011;64176;49.156;7.810;2023-09-19T04:47:33;4.60;;;2.80;;
75593;SDS011;64176;49.156;7.810;2023-09-19T04:50:17;5.18;;;2.40;;
75593;SDS011;64176;49.156;7.810;2023-09-19T04:53:02;3.80;;;2.10;;
75593;SDS011;64176;49.156;7.810;2023-09-19T04:55:50;5.45;;;3.33;;
75593;SDS011;64176;49.156;7.810;2023-09-19T04:58:36;5.20;;;2.33;;
75593;SDS011;64176;49.156;7.810;2023-09-19T05:01:25;4.75;;;2.63;;
75593;SDS011;64176;49.156;7.810;2023-09-19T05:04:12;3.85;;;2.45;;
75593;SDS011;64176;49.156;7.810;2023-09-19T05:07:04;3.17;;;2.08;;
75593;SDS011;64176;49.156;7.810;2023-09-19T05:09:48;3.53;;;2.45;;
75593;SDS011;64176;49.156;7.810;2023-09-19T05:12:33;3.22;;;2.30;;
75593;SDS011;64176;49.156;7.810;2023-09-19T05:15:19;5.45;;;2.53;;
75593;SDS011;64176;49.156;7.810;2023-09-19T05:18:03;5.32;;;2.08;;
75593;SDS011;64176;49.156;7.810;2023-09-19T05:20:52;4.85;;;2.35;;
75593;SDS011;64176;49.156;7.810;2023-09-19T05:23:38;6.05;;;2.33;;
75593;SDS011;64176;49.156;7.810;2023-09-19T05:26:25;4.40;;;2.55;;
75593;SDS011;64176;49.156;7.810;2023-09-19T05:29:13;9.63;;;2.38;;
75593;SDS011;64176;49.156;7.810;2023-09-19T05:34:43;3.40;;;2.08;;
75593;SDS011;64176;49.156;7.810;2023-09-19T05:37:27;6.97;;;2.17;;
75593;SDS011;64176;49.156;7.810;2023-09-19T05:40:15;5.13;;;1.60;;
75593;SDS011;64176;49.156;7.810;2023-09-19T05:43:03;3.42;;;1.70;;
75593;SDS011;64176;49.156;7.810;2023-09-19T05:45:49;3.53;;;1.85;;
75593;SDS011;64176;49.156;7.810;2023-09-19T05:48:41;5.22;;;1.42;;
75593;SDS011;64176;49.156;7.810;2023-09-19T05:51:28;4.18;;;1.30;;
75593;SDS011;64176;49.156;7.810;2023-09-19T05:54:14;4.65;;;1.33;;
75593;SDS011;64176;49.156;7.810;2023-09-19T05:57:02;1.85;;;1.20;;
75593;SDS011;64176;49.156;7.810;2023-09-19T05:59:46;2.72;;;1.30;;
75593;SDS011;64176;49.156;7.810;2023-09-19T06:02:36;5.38;;;2.10;;
75593;SDS011;64176;49.156;7.810;2023-09-19T06:05:21;2.35;;;1.25;;
75593;SDS011;64176;49.156;7.810;2023-09-19T06:08:08;4.05;;;1.17;;
75593;SDS011;64176;49.156;7.810;2023-09-19T06:10:55;2.78;;;0.77;;
75593;SDS011;64176;49.156;7.810;2023-09-19T06:13:39;2.03;;;0.98;;
75593;SDS011;64176;49.156;7.810;2023-09-19T06:16:24;4.40;;;1.15;;
75593;SDS011;64176;49.156;7.810;2023-09-19T06:19:09;2.60;;;0.90;;
75593;SDS011;64176;49.156;7.810;2023-09-19T06:24:42;3.33;;;1.17;;
75593;SDS011;64176;49.156;7.810;2023-09-19T06:27:29;3.90;;;1.17;;
75593;SDS011;64176;49.156;7.810;2023-09-19T06:30:15;1.73;;;0.70;;
75593;SDS011;64176;49.156;7.810;2023-09-19T06:33:01;3.47;;;0.85;;
75593;SDS011;64176;49.156;7.810;2023-09-19T06:35:47;3.80;;;1.00;;
75593;SDS011;64176;49.156;7.810;2023-09-19T06:38:31;5.20;;;1.00;;
75593;SDS011;64176;49.156;7.810;2023-09-19T06:41:20;3.55;;;1.35;;
75593;SDS011;64176;49.156;7.810;2023-09-19T06:44:08;4.93;;;1.20;;
75593;SDS011;64176;49.156;7.810;2023-09-19T06:46:59;3.42;;;0.80;;
75593;SDS011;64176;49.156;7.810;2023-09-19T06:49:43;1.38;;;0.73;;
75593;SDS011;64176;49.156;7.810;2023-09-19T06:52:32;5.60;;;1.75;;
75593;SDS011;64176;49.156;7.810;2023-09-19T06:55:17;1.63;;;0.90;;
75593;SDS011;64176;49.156;7.810;2023-09-19T06:58:08;5.90;;;1.40;;
75593;SDS011;64176;49.156;7.810;2023-09-19T07:00:59;1.42;;;0.98;;
75593;SDS011;64176;49.156;7.810;2023-09-19T07:06:30;4.38;;;1.10;;
75593;SDS011;64176;49.156;7.810;2023-09-19T07:09:14;3.20;;;1.38;;
75593;SDS011;64176;49.156;7.810;2023-09-19T07:11:58;2.85;;;0.75;;
75593;SDS011;64176;49.156;7.810;2023-09-19T07:14:44;2.78;;;1.17;;
75593;SDS011;64176;49.156;7.810;2023-09-19T07:20:14;3.90;;;0.93;;
75593;SDS011;64176;49.156;7.810;2023-09-19T07:23:00;3.83;;;1.08;;
75593;SDS011;64176;49.156;7.810;2023-09-19T07:25:44;3.35;;;1.00;;
75593;SDS011;64176;49.156;7.810;2023-09-19T07:28:34;2.95;;;0.85;;
75593;SDS011;64176;49.156;7.810;2023-09-19T07:31:20;2.83;;;0.88;;
75593;SDS011;64176;49.156;7.810;2023-09-19T07:34:08;2.53;;;1.10;;
75593;SDS011;64176;49.156;7.810;2023-09-19T07:36:53;5.43;;;1.20;;
75593;SDS011;64176;49.156;7.810;2023-09-19T07:39:41;2.80;;;0.95;;
75593;SDS011;64176;49.156;7.810;2023-09-19T07:42:28;3.53;;;1.67;;
75593;SDS011;64176;49.156;7.810;2023-09-19T07:45:13;2.97;;;0.95;;
75593;SDS011;64176;49.156;7.810;2023-09-19T07:48:00;3.22;;;1.00;;
75593;SDS011;64176;49.156;7.810;2023-09-19T07:50:48;2.95;;;0.93;;
75593;SDS011;64176;49.156;7.810;2023-09-19T07:53:32;2.55;;;0.88;;
75593;SDS011;64176;49.156;7.810;2023-09-19T07:56:21;2.78;;;0.90;;
75593;SDS011;64176;49.156;7.810;2023-09-19T07:59:06;3.78;;;1.15;;
75593;SDS011;64176;49.156;7.810;2023-09-19T08:01:52;2.67;;;0.82;;
75593;SDS011;64176;49.156;7.810;2023-09-19T08:04:38;6.35;;;1.10;;
75593;SDS011;64176;49.156;7.810;2023-09-19T08:07:25;3.45;;;1.15;;
75593;SDS011;64176;49.156;7.810;2023-09-19T08:10:13;4.30;;;1.23;;
75593;SDS011;64176;49.156;7.810;2023-09-19T08:12:59;3.03;;;1.15;;
75593;SDS011;64176;49.156;7.810;2023-09-19T08:15:46;4.28;;;1.33;;
75593;SDS011;64176;49.156;7.810;2023-09-19T08:18:33;2.38;;;1.15;;
75593;SDS011;64176;49.156;7.810;2023-09-19T08:21:24;4.93;;;1.63;;
75593;SDS011;64176;49.156;7.810;2023-09-19T08:24:12;5.13;;;1.30;;
75593;SDS011;64176;49.156;7.810;2023-09-19T08:26:56;2.55;;;0.85;;
75593;SDS011;64176;49.156;7.810;2023-09-19T08:29:41;2.13;;;1.20;;
75593;SDS011;64176;49.156;7.810;2023-09-19T08:32:28;3.03;;;0.80;;
75593;SDS011;64176;49.156;7.810;2023-09-19T08:35:13;5.38;;;1.10;;
75593;SDS011;64176;49.156;7.810;2023-09-19T08:38:02;4.95;;;1.50;;
75593;SDS011;64176;49.156;7.810;2023-09-19T08:40:48;5.10;;;0.95;;
75593;SDS011;64176;49.156;7.810;2023-09-19T08:46:18;2.88;;;1.33;;
75593;SDS011;64176;49.156;7.810;2023-09-19T08:49:04;4.10;;;1.20;;
75593;SDS011;64176;49.156;7.810;2023-09-19T08:51:54;3.05;;;1.25;;
75593;SDS011;64176;49.156;7.810;2023-09-19T08:54:58;3.70;;;1.17;;
75593;SDS011;64176;49.156;7.810;2023-09-19T08:57:49;6.10;;;1.35;;
75593;SDS011;64176;49.156;7.810;2023-09-19T09:00:33;6.85;;;1.65;;
75593;SDS011;64176;49.156;7.810;2023-09-19T09:03:18;3.67;;;1.77;;
75593;SDS011;64176;49.156;7.810;2023-09-19T09:06:05;4.68;;;1.17;;
75593;SDS011;64176;49.156;7.810;2023-09-19T09:09:04;6.30;;;1.65;;
75593;SDS011;64176;49.156;7.810;2023-09-19T09:11:51;5.00;;;1.20;;
75593;SDS011;64176;49.156;7.810;2023-09-19T09:14:37;2.85;;;1.38;;
75593;SDS011;64176;49.156;7.810;2023-09-19T09:17:23;5.13;;;1.50;;
75593;SDS011;64176;49.156;7.810;2023-09-19T09:20:11;6.03;;;2.03;;
75593;SDS011;64176;49.156;7.810;2023-09-19T09:22:56;3.28;;;1.38;;
75593;SDS011;64176;49.156;7.810;2023-09-19T09:25:51;4.10;;;1.17;;
75593;SDS011;64176;49.156;7.810;2023-09-19T09:28:44;7.13;;;1.90;;
75593;SDS011;64176;49.156;7.810;2023-09-19T09:31:29;3.15;;;1.63;;
75593;SDS011;64176;49.156;7.810;2023-09-19T09:34:16;4.88;;;1.58;;
75593;SDS011;64176;49.156;7.810;2023-09-19T09:37:05;5.28;;;1.58;;
75593;SDS011;64176;49.156;7.810;2023-09-19T09:39:49;4.15;;;1.45;;
75593;SDS011;64176;49.156;7.810;2023-09-19T09:45:23;3.38;;;1.42;;
75593;SDS011;64176;49.156;7.810;2023-09-19T09:48:17;3.60;;;1.70;;
75593;SDS011;64176;49.156;7.810;2023-09-19T09:51:18;3.20;;;1.10;;
75593;SDS011;64176;49.156;7.810;2023-09-19T09:54:15;1.60;;;1.20;;
75593;SDS011;64176;49.156;7.810;2023-09-19T09:57:10;2.58;;;1.20;;
75593;SDS011;64176;49.156;7.810;2023-09-19T10:00:00;2.92;;;1.40;;
75593;SDS011;64176;49.156;7.810;2023-09-19T10:03:00;4.30;;;1.52;;
75593;SDS011;64176;49.156;7.810;2023-09-19T10:05:44;2.35;;;1.13;;
75593;SDS011;64176;49.156;7.810;2023-09-19T10:08:29;1.58;;;1.02;;
75593;SDS011;64176;49.156;7.810;2023-09-19T10:11:15;7.53;;;1.17;;
75593;SDS011;64176;49.156;7.810;2023-09-19T10:14:03;2.70;;;1.40;;
75593;SDS011;64176;49.156;7.810;2023-09-19T10:16:58;1.73;;;1.00;;
75593;SDS011;64176;49.156;7.810;2023-09-19T10:19:59;3.35;;;1.00;;
75593;SDS011;64176;49.156;7.810;2023-09-19T10:22:53;3.05;;;1.05;;
75593;SDS011;64176;49.156;7.810;2023-09-19T10:25:42;3.75;;;1.13;;
75593;SDS011;64176;49.156;7.810;2023-09-19T10:28:36;2.80;;;1.00;;
75593;SDS011;64176;49.156;7.810;2023-09-19T10:31:28;2.28;;;1.00;;
75593;SDS011;64176;49.156;7.810;2023-09-19T10:34:15;3.80;;;1.25;;
75593;SDS011;64176;49.156;7.810;2023-09-19T10:37:02;3.22;;;1.08;;
75593;SDS011;64176;49.156;7.810;2023-09-19T10:39:50;4.55;;;1.50;;
75593;SDS011;64176;49.156;7.810;2023-09-19T10:42:37;5.43;;;1.40;;
75593;SDS011;64176;49.156;7.810;2023-09-19T10:45:21;4.13;;;1.65;;
75593;SDS011;64176;49.156;7.810;2023-09-19T10:48:06;4.15;;;1.17;;
75593;SDS011;64176;49.156;7.810;2023-09-19T10:56:37;2.58;;;1.05;;
75593;SDS011;64176;49.156;7.810;2023-09-19T10:59:25;2.95;;;0.95;;
75593;SDS011;64176;49.156;7.810;2023-09-19T11:02:18;3.65;;;1.10;;
75593;SDS011;64176;49.156;7.810;2023-09-19T11:05:12;3.15;;;1.33;;
75593;SDS011;64176;49.156;7.810;2023-09-19T11:07:59;4.95;;;0.90;;
75593;SDS011;64176;49.156;7.810;2023-09-19T11:10:51;2.70;;;0.95;;
75593;SDS011;64176;49.156;7.810;2023-09-19T11:13:45;2.97;;;0.80;;
75593;SDS011;64176;49.156;7.810;2023-09-19T11:26:01;1.58;;;0.65;;
75593;SDS011;64176;49.156;7.810;2023-09-19T11:28:51;1.52;;;0.98;;
75593;SDS011;64176;49.156;7.810;2023-09-19T11:33:15;3.45;;;1.13;;
75593;SDS011;64176;49.156;7.810;2023-09-19T11:38:59;3.50;;;1.08;;
75593;SDS011;64176;49.156;7.810;2023-09-19T11:41:54;3.95;;;0.65;;
75593;SDS011;64176;49.156;7.810;2023-09-19T11:44:42;2.33;;;1.00;;
75593;SDS011;64176;49.156;7.810;2023-09-19T11:47:30;2.25;;;0.95;;
75593;SDS011;64176;49.156;7.810;2023-09-19T11:50:19;2.85;;;0.73;;
75593;SDS011;64176;49.156;7.810;2023-09-19T11:53:10;1.92;;;1.00;;
75593;SDS011;64176;49.156;7.810;2023-09-19T11:55:56;1.63;;;0.73;;
75593;SDS011;64176;49.156;7.810;2023-09-19T11:58:43;0.93;;;0.70;;
75593;SDS011;64176;49.156;7.810;2023-09-19T12:01:35;2.38;;;0.90;;
75593;SDS011;64176;49.156;7.810;2023-09-19T12:07:25;1.60;;;0.90;;
75593;SDS011;64176;49.156;7.810;2023-09-19T12:10:11;5.03;;;1.13;;
75593;SDS011;64176;49.156;7.810;2023-09-19T12:13:04;2.00;;;0.88;;
75593;SDS011;64176;49.156;7.810;2023-09-19T12:15:50;1.80;;;0.93;;
75593;SDS011;64176;49.156;7.810;2023-09-19T12:18:37;1.40;;;0.98;;
75593;SDS011;64176;49.156;7.810;2023-09-19T12:21:28;4.45;;;1.00;;
75593;SDS011;64176;49.156;7.810;2023-09-19T12:24:13;1.80;;;1.08;;
75593;SDS011;64176;49.156;7.810;2023-09-19T12:27:06;3.55;;;0.88;;
75593;SDS011;64176;49.156;7.810;2023-09-19T12:29:53;3.55;;;1.13;;
75593;SDS011;64176;49.156;7.810;2023-09-19T12:32:45;2.60;;;0.95;;
75593;SDS011;64176;49.156;7.810;2023-09-19T12:35:31;2.63;;;0.70;;
75593;SDS011;64176;49.156;7.810;2023-09-19T12:38:26;2.47;;;0.82;;
75593;SDS011;64176;49.156;7.810;2023-09-19T12:41:21;2.67;;;1.13;;
75593;SDS011;64176;49.156;7.810;2023-09-19T12:44:06;2.45;;;0.85;;
75593;SDS011;64176;49.156;7.810;2023-09-19T12:46:53;3.33;;;0.75;;
75593;SDS011;64176;49.156;7.810;2023-09-19T12:52:57;1.30;;;0.60;;
75593;SDS011;64176;49.156;7.810;2023-09-19T12:55:43;2.47;;;0.93;;
75593;SDS011;64176;49.156;7.810;2023-09-19T12:58:36;2.30;;;0.85;;
75593;SDS011;64176;49.156;7.810;2023-09-19T13:01:45;3.33;;;0.93;;
75593;SDS011;64176;49.156;7.810;2023-09-19T13:04:36;2.63;;;1.33;;
75593;SDS011;64176;49.156;7.810;2023-09-19T13:07:39;1.15;;;0.77;;
75593;SDS011;64176;49.156;7.810;2023-09-19T13:10:30;4.28;;;1.65;;
75593;SDS011;64176;49.156;7.810;2023-09-19T13:13:24;0.88;;;0.70;;
75593;SDS011;64176;49.156;7.810;2023-09-19T13:16:14;2.97;;;1.05;;
75593;SDS011;64176;49.156;7.810;2023-09-19T13:19:03;2.33;;;0.82;;
75593;SDS011;64176;49.156;7.810;2023-09-19T13:21:49;2.70;;;0.80;;
75593;SDS011;64176;49.156;7.810;2023-09-19T13:24:40;2.40;;;0.70;;
75593;SDS011;64176;49.156;7.810;2023-09-19T13:27:28;6.38;;;0.93;;
75593;SDS011;64176;49.156;7.810;2023-09-19T13:30:12;3.13;;;1.00;;
75593;SDS011;64176;49.156;7.810;2023-09-19T13:33:06;1.80;;;0.77;;
75593;SDS011;64176;49.156;7.810;2023-09-19T13:35:58;3.40;;;1.20;;
75593;SDS011;64176;49.156;7.810;2023-09-19T13:38:42;1.65;;;0.93;;
75593;SDS011;64176;49.156;7.810;2023-09-19T13:41:29;2.22;;;1.20;;
75593;SDS011;64176;49.156;7.810;2023-09-19T13:44:16;1.83;;;0.90;;
75593;SDS011;64176;49.156;7.810;2023-09-19T13:47:01;2.72;;;0.90;;
75593;SDS011;64176;49.156;7.810;2023-09-19T13:49:48;2.65;;;1.05;;
75593;SDS011;64176;49.156;7.810;2023-09-19T13:52:37;11.85;;;1.70;;
75593;SDS011;64176;49.156;7.810;2023-09-19T13:55:22;2.92;;;1.10;;
75593;SDS011;64176;49.156;7.810;2023-09-19T13:58:11;0.82;;;0.80;;
75593;SDS011;64176;49.156;7.810;2023-09-19T14:00:58;3.17;;;0.80;;
75593;SDS011;64176;49.156;7.810;2023-09-19T14:03:45;2.03;;;1.00;;
75593;SDS011;64176;49.156;7.810;2023-09-19T14:06:33;2.95;;;0.90;;
75593;SDS011;64176;49.156;7.810;2023-09-19T14:09:19;6.22;;;0.95;;
75593;SDS011;64176;49.156;7.810;2023-09-19T14:12:07;1.88;;;1.00;;
75593;SDS011;64176;49.156;7.810;2023-09-19T14:14:51;4.20;;;1.10;;
75593;SDS011;64176;49.156;7.810;2023-09-19T14:17:35;2.72;;;0.85;;
75593;SDS011;64176;49.156;7.810;2023-09-19T14:20:21;1.83;;;0.82;;
75593;SDS011;64176;49.156;7.810;2023-09-19T14:23:09;0.82;;;0.60;;
75593;SDS011;64176;49.156;7.810;2023-09-19T14:25:53;3.88;;;2.08;;
75593;SDS011;64176;49.156;7.810;2023-09-19T14:28:38;1.05;;;0.80;;
75593;SDS011;64176;49.156;7.810;2023-09-19T14:31:31;1.63;;;0.77;;
75593;SDS011;64176;49.156;7.810;2023-09-19T14:34:15;1.65;;;1.20;;
75593;SDS011;64176;49.156;7.810;2023-09-19T14:37:03;2.63;;;0.60;;
75593;SDS011;64176;49.156;7.810;2023-09-19T14:39:53;2.03;;;0.75;;
75593;SDS011;64176;49.156;7.810;2023-09-19T14:42:40;1.95;;;0.80;;
75593;SDS011;64176;49.156;7.810;2023-09-19T14:45:32;3.33;;;0.60;;
75593;SDS011;64176;49.156;7.810;2023-09-19T14:48:17;2.25;;;0.68;;
75593;SDS011;64176;49.156;7.810;2023-09-19T14:51:01;2.78;;;0.88;;
75593;SDS011;64176;49.156;7.810;2023-09-19T14:53:48;1.02;;;0.60;;
75593;SDS011;64176;49.156;7.810;2023-09-19T14:56:35;1.45;;;0.85;;
75593;SDS011;64176;49.156;7.810;2023-09-19T14:59:25;2.90;;;0.73;;
75593;SDS011;64176;49.156;7.810;2023-09-19T15:02:11;2.13;;;0.80;;
75593;SDS011;64176;49.156;7.810;2023-09-19T15:05:02;2.03;;;0.73;;
75593;SDS011;64176;49.156;7.810;2023-09-19T15:07:47;1.60;;;0.60;;
75593;SDS011;64176;49.156;7.810;2023-09-19T15:10:31;1.42;;;0.60;;
75593;SDS011;64176;49.156;7.810;2023-09-19T15:13:15;2.55;;;0.60;;
75593;SDS011;64176;49.156;7.810;2023-09-19T15:16:03;3.95;;;0.95;;
75593;SDS011;64176;49.156;7.810;2023-09-19T15:18:48;1.92;;;0.63;;
75593;SDS011;64176;49.156;7.810;2023-09-19T15:21:36;2.45;;;0.73;;
75593;SDS011;64176;49.156;7.810;2023-09-19T15:24:29;1.70;;;0.70;;
75593;SDS011;64176;49.156;7.810;2023-09-19T15:27:18;1.35;;;0.93;;
75593;SDS011;64176;49.156;7.810;2023-09-19T15:30:03;3.35;;;0.85;;
75593;SDS011;64176;49.156;7.810;2023-09-19T15:32:54;1.00;;;0.70;;
75593;SDS011;64176;49.156;7.810;2023-09-19T15:35:40;1.42;;;0.60;;
75593;SDS011;64176;49.156;7.810;2023-09-19T15:38:25;4.68;;;1.50;;
75593;SDS011;64176;49.156;7.810;2023-09-19T15:41:14;1.20;;;0.70;;
75593;SDS011;64176;49.156;7.810;2023-09-19T15:44:01;1.23;;;0.73;;
75593;SDS011;64176;49.156;7.810;2023-09-19T15:46:58;1.45;;;0.60;;
75593;SDS011;64176;49.156;7.810;2023-09-19T15:49:43;1.73;;;0.80;;
75593;SDS011;64176;49.156;7.810;2023-09-19T15:52:34;0.75;;;0.50;;
75593;SDS011;64176;49.156;7.810;2023-09-19T15:55:23;1.75;;;0.70;;
75593;SDS011;64176;49.156;7.810;2023-09-19T15:58:07;2.50;;;1.10;;
75593;SDS011;64176;49.156;7.810;2023-09-19T16:00:54;3.80;;;0.80;;
75593;SDS011;64176;49.156;7.810;2023-09-19T16:03:48;2.97;;;0.82;;
75593;SDS011;64176;49.156;7.810;2023-09-19T16:06:37;1.20;;;0.60;;
75593;SDS011;64176;49.156;7.810;2023-09-19T16:09:22;5.13;;;0.80;;
75593;SDS011;64176;49.156;7.810;2023-09-19T16:12:08;1.50;;;0.73;;
75593;SDS011;64176;49.156;7.810;2023-09-19T16:14:57;2.83;;;0.80;;
75593;SDS011;64176;49.156;7.810;2023-09-19T16:17:42;2.08;;;0.68;;
75593;SDS011;64176;49.156;7.810;2023-09-19T16:20:30;1.27;;;0.70;;
75593;SDS011;64176;49.156;7.810;2023-09-19T16:23:17;2.05;;;0.47;;
75593;SDS011;64176;49.156;7.810;2023-09-19T16:26:04;1.42;;;0.60;;
75593;SDS011;64176;49.156;7.810;2023-09-19T16:28:53;1.40;;;1.05;;
75593;SDS011;64176;49.156;7.810;2023-09-19T16:31:42;1.20;;;0.70;;
75593;SDS011;64176;49.156;7.810;2023-09-19T16:34:26;0.73;;;0.57;;
75593;SDS011;64176;49.156;7.810;2023-09-19T16:37:13;1.42;;;0.60;;
75593;SDS011;64176;49.156;7.810;2023-09-19T16:39:58;1.40;;;0.50;;
75593;SDS011;64176;49.156;7.810;2023-09-19T16:42:44;1.10;;;0.50;;
75593;SDS011;64176;49.156;7.810;2023-09-19T16:45:31;2.35;;;0.65;;
75593;SDS011;64176;49.156;7.810;2023-09-19T16:48:17;1.83;;;0.50;;
75593;SDS011;64176;49.156;7.810;2023-09-19T16:51:11;1.58;;;0.55;;
75593;SDS011;64176;49.156;7.810;2023-09-19T16:53:57;1.10;;;0.73;;
75593;SDS011;64176;49.156;7.810;2023-09-19T16:56:41;1.65;;;0.65;;
75593;SDS011;64176;49.156;7.810;2023-09-19T16:59:28;1.38;;;0.77;;
75593;SDS011;64176;49.156;7.810;2023-09-19T17:02:15;1.60;;;0.70;;
75593;SDS011;64176;49.156;7.810;2023-09-19T17:05:04;4.25;;;0.90;;
75593;SDS011;64176;49.156;7.810;2023-09-19T17:07:52;1.58;;;0.73;;
75593;SDS011;64176;49.156;7.810;2023-09-19T17:10:42;1.77;;;0.52;;
75593;SDS011;64176;49.156;7.810;2023-09-19T17:13:30;3.78;;;0.93;;
75593;SDS011;64176;49.156;7.810;2023-09-19T17:16:15;1.08;;;0.52;;
75593;SDS011;64176;49.156;7.810;2023-09-19T17:21:54;1.50;;;0.80;;
75593;SDS011;64176;49.156;7.810;2023-09-19T17:24:38;2.45;;;1.17;;
75593;SDS011;64176;49.156;7.810;2023-09-19T17:27:25;2.55;;;0.90;;
75593;SDS011;64176;49.156;7.810;2023-09-19T17:30:09;2.70;;;0.98;;
75593;SDS011;64176;49.156;7.810;2023-09-19T17:32:57;4.55;;;0.88;;
75593;SDS011;64176;49.156;7.810;2023-09-19T17:35:46;2.20;;;0.60;;
75593;SDS011;64176;49.156;7.810;2023-09-19T17:38:35;3.92;;;1.08;;
75593;SDS011;64176;49.156;7.810;2023-09-19T17:41:21;2.95;;;0.68;;
75593;SDS011;64176;49.156;7.810;2023-09-19T17:44:08;2.20;;;1.30;;
75593;SDS011;64176;49.156;7.810;2023-09-19T17:47:00;3.65;;;0.88;;
75593;SDS011;64176;49.156;7.810;2023-09-19T17:49:45;1.67;;;1.10;;
75593;SDS011;64176;49.156;7.810;2023-09-19T17:52:32;3.88;;;0.90;;
75593;SDS011;64176;49.156;7.810;2023-09-19T17:55:21;1.40;;;1.10;;
75593;SDS011;64176;49.156;7.810;2023-09-19T17:58:08;2.65;;;1.30;;
75593;SDS011;64176;49.156;7.810;2023-09-19T18:00:53;1.48;;;1.17;;
75593;SDS011;64176;49.156;7.810;2023-09-19T18:03:38;2.20;;;1.23;;
75593;SDS011;64176;49.156;7.810;2023-09-19T18:06:30;3.63;;;1.23;;
75593;SDS011;64176;49.156;7.810;2023-09-19T18:09:21;1.90;;;1.20;;
75593;SDS011;64176;49.156;7.810;2023-09-19T18:12:10;2.03;;;1.45;;
75593;SDS011;64176;49.156;7.810;2023-09-19T18:14:59;4.60;;;1.42;;
75593;SDS011;64176;49.156;7.810;2023-09-19T18:20:33;2.58;;;1.50;;
75593;SDS011;64176;49.156;7.810;2023-09-19T18:23:18;5.07;;;2.45;;